PWSweather.com
Personal Weather Stations
Station Observations
SONYA
Sergiev PosadRU

Sergiev PosadRU

Lat: 56.28148651, Lon: 38.05462646

Elevation: 741

Station Type: Fine offset WH1091

High Low Average
Temperature 62.4°F16.9°C 52.3°F11.3°C 55.9°F13.3°C
Dew Point 53.8°F12.1°C 49.4°F9.7°C 51.8°F11.0°C
Winds 6.9 mph 11.1 kmh Calm Calm 2.0 mph SW3.2 kmh SW
Wind Gusts 10.7 mph17.2 kmh 0.7 mph1.1 kmh 4.0 mph6.4 kmh
Humidity 98% 62% 83%
Pressure 29.60 in1002.4 mb 29.56 in1001.0 mb -
Precipitation 0.04 in1.0 mm - -
Hour Temp Dew Point Humidity Winds Wind Gusts Pressure Precip Precip Rate Daily Precip Total
10:02 AM 56.7°F13.7°C 49.9°F9.9°C 72% 3.1 mph S5.0 kmh S 4.5 mph7.2 kmh 29.59 in1002.0 mb 0.00 in0.0 mm 0.00 in0.0 mm 0.04 in1.0 mm
10:07 AM 55.0°F12.8°C 49.4°F9.7°C 76% 4.5 mph S7.2 kmh S 6.9 mph11.1 kmh 29.59 in1002.0 mb 0.00 in0.0 mm 0.00 in0.0 mm 0.04 in1.0 mm
10:12 AM 54.3°F12.4°C 49.5°F9.7°C 79% 1.6 mph SW2.6 kmh SW 3.8 mph6.1 kmh 29.59 in1002.0 mb 0.00 in0.0 mm 0.00 in0.0 mm 0.04 in1.0 mm
10:17 AM 54.1°F12.3°C 49.6°F9.8°C 80% 1.6 mph SW2.6 kmh SW 3.1 mph5.0 kmh 29.59 in1002.0 mb 0.00 in0.0 mm 0.00 in0.0 mm 0.04 in1.0 mm
10:22 AM 54.1°F12.3°C 49.8°F9.9°C 81% Calm Calm 1.6 mph2.6 kmh 29.59 in1002.0 mb 0.00 in0.0 mm 0.00 in0.0 mm 0.04 in1.0 mm
10:27 AM 54.3°F12.4°C 50.0°F10.0°C 81% 3.1 mph W5.0 kmh W 6.0 mph9.7 kmh 29.60 in1002.4 mb 0.00 in0.0 mm 0.00 in0.0 mm 0.04 in1.0 mm
10:32 AM 55.8°F13.2°C 51.7°F10.9°C 82% 2.2 mph S3.5 kmh S 5.4 mph8.7 kmh 29.59 in1002.0 mb 0.00 in0.0 mm 0.00 in0.0 mm 0.04 in1.0 mm
10:37 AM 56.1°F13.4°C 51.0°F10.6°C 78% Calm Calm 2.2 mph3.5 kmh 29.59 in1002.0 mb 0.00 in0.0 mm 0.00 in0.0 mm 0.04 in1.0 mm
10:42 AM 56.1°F13.4°C 50.5°F10.3°C 76% 5.4 mph SW8.7 kmh SW 9.8 mph15.8 kmh 29.59 in1002.0 mb 0.00 in0.0 mm 0.00 in0.0 mm 0.04 in1.0 mm
10:47 AM 55.2°F12.9°C 50.1°F10.1°C 78% 3.1 mph SW5.0 kmh SW 4.5 mph7.2 kmh 29.59 in1002.0 mb 0.00 in0.0 mm 0.00 in0.0 mm 0.04 in1.0 mm
10:52 AM 55.0°F12.8°C 50.5°F10.3°C 80% 6.9 mph SW11.1 kmh SW 8.3 mph13.4 kmh 29.59 in1002.0 mb 0.00 in0.0 mm 0.00 in0.0 mm 0.04 in1.0 mm
10:57 AM 55.8°F13.2°C 51.4°F10.8°C 81% 2.2 mph SW3.5 kmh SW 4.5 mph7.2 kmh 29.59 in1002.0 mb 0.00 in0.0 mm 0.00 in0.0 mm 0.04 in1.0 mm
11:02 AM 57.0°F13.9°C 51.9°F11.1°C 78% 5.4 mph SW8.7 kmh SW 7.6 mph12.2 kmh 29.59 in1002.0 mb 0.00 in0.0 mm 0.00 in0.0 mm 0.04 in1.0 mm
11:07 AM 58.1°F14.5°C 51.8°F11.0°C 74% 3.1 mph E5.0 kmh E 5.4 mph8.7 kmh 29.58 in1001.7 mb 0.00 in0.0 mm 0.00 in0.0 mm 0.02 in0.5 mm
11:12 AM 60.1°F15.6°C 52.9°F11.6°C 71% 1.6 mph S2.6 kmh S 3.1 mph5.0 kmh 29.58 in1001.7 mb 0.00 in0.0 mm 0.00 in0.0 mm 0.02 in0.5 mm
11:17 AM 61.5°F16.4°C 53.0°F11.7°C 67% 2.2 mph NW3.5 kmh NW 4.5 mph7.2 kmh 29.59 in1002.0 mb 0.00 in0.0 mm 0.00 in0.0 mm 0.02 in0.5 mm
11:22 AM 62.1°F16.7°C 52.3°F11.3°C 63% 3.1 mph S5.0 kmh S 4.5 mph7.2 kmh 29.59 in1002.0 mb 0.00 in0.0 mm 0.00 in0.0 mm 0.02 in0.5 mm
11:27 AM 62.4°F16.9°C 52.6°F11.4°C 63% 1.6 mph NW2.6 kmh NW 3.1 mph5.0 kmh 29.58 in1001.7 mb 0.00 in0.0 mm 0.00 in0.0 mm 0.02 in0.5 mm
11:32 AM 60.6°F15.9°C 51.6°F10.9°C 65% 1.6 mph SW2.6 kmh SW 3.1 mph5.0 kmh 29.59 in1002.0 mb 0.00 in0.0 mm 0.00 in0.0 mm 0.02 in0.5 mm
11:37 AM 59.4°F15.2°C 51.0°F10.6°C 67% 5.4 mph SW8.7 kmh SW 9.8 mph15.8 kmh 29.60 in1002.4 mb 0.00 in0.0 mm 0.00 in0.0 mm 0.02 in0.5 mm
11:42 AM 56.7°F13.7°C 50.2°F10.1°C 73% 2.2 mph 3.5 kmh 5.4 mph8.7 kmh 29.60 in1002.4 mb 0.00 in0.0 mm 0.00 in0.0 mm 0.02 in0.5 mm
11:47 AM 56.1°F13.4°C 49.9°F9.9°C 74% 0.7 mph E1.1 kmh E 3.8 mph6.1 kmh 29.60 in1002.4 mb 0.00 in0.0 mm 0.00 in0.0 mm 0.02 in0.5 mm
11:52 AM 57.0°F13.9°C 51.1°F10.6°C 75% 1.6 mph SW2.6 kmh SW 3.1 mph5.0 kmh 29.59 in1002.0 mb 0.00 in0.0 mm 0.00 in0.0 mm 0.02 in0.5 mm
11:57 AM 59.2°F15.1°C 52.6°F11.4°C 73% 1.6 mph W2.6 kmh W 2.2 mph3.5 kmh 29.59 in1002.0 mb 0.00 in0.0 mm 0.00 in0.0 mm 0.02 in0.5 mm
12:02 PM 60.8°F16.0°C 52.0°F11.1°C 66% 6.0 mph SW9.7 kmh SW 9.2 mph14.8 kmh 29.59 in1002.0 mb 0.00 in0.0 mm 0.00 in0.0 mm 0.02 in0.5 mm
12:07 PM 58.1°F14.5°C 50.7°F10.4°C 70% 2.2 mph 3.5 kmh 5.4 mph8.7 kmh 29.59 in1002.0 mb 0.00 in0.0 mm 0.00 in0.0 mm 0.02 in0.5 mm
12:12 PM 57.0°F13.9°C 50.5°F10.3°C 73% 3.1 mph SW5.0 kmh SW 3.8 mph6.1 kmh 29.59 in1002.0 mb 0.00 in0.0 mm 0.00 in0.0 mm 0.02 in0.5 mm
12:17 PM 56.7°F13.7°C 50.7°F10.4°C 75% 3.8 mph SW6.1 kmh SW 9.8 mph15.8 kmh 29.59 in1002.0 mb 0.00 in0.0 mm 0.00 in0.0 mm 0.02 in0.5 mm
12:22 PM 56.1°F13.4°C 50.5°F10.3°C 76% 1.6 mph SW2.6 kmh SW 3.1 mph5.0 kmh 29.59 in1002.0 mb 0.00 in0.0 mm 0.00 in0.0 mm 0.02 in0.5 mm
12:27 PM 57.0°F13.9°C 51.3°F10.7°C 76% 2.2 mph 3.5 kmh 3.8 mph6.1 kmh 29.59 in1002.0 mb 0.00 in0.0 mm 0.00 in0.0 mm 0.02 in0.5 mm
12:32 PM 57.2°F14.0°C 51.0°F10.6°C 74% 3.1 mph S5.0 kmh S 3.8 mph6.1 kmh 29.59 in1002.0 mb 0.00 in0.0 mm 0.00 in0.0 mm 0.02 in0.5 mm
12:37 PM 57.0°F13.9°C 51.1°F10.6°C 75% 3.1 mph S5.0 kmh S 4.5 mph7.2 kmh 29.59 in1002.0 mb 0.00 in0.0 mm 0.00 in0.0 mm 0.02 in0.5 mm
12:42 PM 56.5°F13.6°C 50.5°F10.3°C 75% 4.5 mph S7.2 kmh S 6.0 mph9.7 kmh 29.59 in1002.0 mb 0.00 in0.0 mm 0.00 in0.0 mm 0.02 in0.5 mm
12:47 PM 57.0°F13.9°C 51.3°F10.7°C 76% 3.1 mph S5.0 kmh S 4.5 mph7.2 kmh 29.59 in1002.0 mb 0.00 in0.0 mm 0.00 in0.0 mm 0.02 in0.5 mm
12:52 PM 58.1°F14.5°C 52.1°F11.2°C 75% 0.7 mph WSW1.1 kmh WSW 2.2 mph3.5 kmh 29.59 in1002.0 mb 0.00 in0.0 mm 0.00 in0.0 mm 0.02 in0.5 mm
12:57 PM 59.5°F15.3°C 52.6°F11.4°C 72% 1.6 mph SW2.6 kmh SW 3.8 mph6.1 kmh 29.58 in1001.7 mb 0.00 in0.0 mm 0.00 in0.0 mm 0.02 in0.5 mm
01:02 PM 59.5°F15.3°C 52.1°F11.2°C 70% 1.6 mph S2.6 kmh S 3.1 mph5.0 kmh 29.58 in1001.7 mb 0.00 in0.0 mm 0.00 in0.0 mm 0.02 in0.5 mm
01:07 PM 59.4°F15.2°C 51.6°F10.9°C 69% 2.2 mph SW3.5 kmh SW 3.8 mph6.1 kmh 29.58 in1001.7 mb 0.00 in0.0 mm 0.00 in0.0 mm 0.02 in0.5 mm
01:12 PM 59.4°F15.2°C 51.3°F10.7°C 68% 0.7 mph SW1.1 kmh SW 2.2 mph3.5 kmh 29.59 in1002.0 mb 0.00 in0.0 mm 0.00 in0.0 mm 0.02 in0.5 mm
01:17 PM 59.2°F15.1°C 51.7°F10.9°C 70% 0.7 mph E1.1 kmh E 1.6 mph2.6 kmh 29.59 in1002.0 mb 0.00 in0.0 mm 0.00 in0.0 mm 0.02 in0.5 mm
01:22 PM 59.0°F15.0°C 51.5°F10.8°C 70% 3.1 mph S5.0 kmh S 5.4 mph8.7 kmh 29.59 in1002.0 mb 0.00 in0.0 mm 0.00 in0.0 mm 0.01 in0.3 mm
01:27 PM 57.4°F14.1°C 50.6°F10.3°C 72% 3.1 mph SW5.0 kmh SW 4.5 mph7.2 kmh 29.60 in1002.4 mb 0.00 in0.0 mm 0.00 in0.0 mm 0.01 in0.3 mm
01:32 PM 56.7°F13.7°C 50.7°F10.4°C 75% 2.2 mph SW3.5 kmh SW 4.5 mph7.2 kmh 29.59 in1002.0 mb 0.00 in0.0 mm 0.00 in0.0 mm 0.00 in0.0 mm
01:37 PM 57.0°F13.9°C 51.1°F10.6°C 75% 1.6 mph SW2.6 kmh SW 3.8 mph6.1 kmh 29.58 in1001.7 mb 0.00 in0.0 mm 0.00 in0.0 mm 0.00 in0.0 mm
01:42 PM 57.6°F14.2°C 51.3°F10.7°C 74% 3.1 mph SE5.0 kmh SE 3.8 mph6.1 kmh 29.59 in1002.0 mb 0.00 in0.0 mm 0.00 in0.0 mm 0.00 in0.0 mm
01:47 PM 58.5°F14.7°C 52.2°F11.2°C 74% 2.2 mph E3.5 kmh E 3.8 mph6.1 kmh 29.59 in1002.0 mb 0.00 in0.0 mm 0.00 in0.0 mm 0.00 in0.0 mm
01:52 PM 59.7°F15.4°C 52.5°F11.4°C 71% 2.2 mph NW3.5 kmh NW 4.5 mph7.2 kmh 29.58 in1001.7 mb 0.00 in0.0 mm 0.00 in0.0 mm 0.00 in0.0 mm
01:57 PM 59.7°F15.4°C 52.5°F11.4°C 71% 3.8 mph NW6.1 kmh NW 6.9 mph11.1 kmh 29.59 in1002.0 mb 0.00 in0.0 mm 0.00 in0.0 mm 0.00 in0.0 mm
02:02 PM 59.2°F15.1°C 51.7°F10.9°C 70% 3.1 mph WSW5.0 kmh WSW 5.4 mph8.7 kmh 29.59 in1002.0 mb 0.00 in0.0 mm 0.00 in0.0 mm 0.00 in0.0 mm
02:07 PM 58.6°F14.8°C 51.8°F11.0°C 72% 2.2 mph SW3.5 kmh SW 3.1 mph5.0 kmh 29.59 in1002.0 mb 0.00 in0.0 mm 0.00 in0.0 mm 0.00 in0.0 mm
02:12 PM 58.1°F14.5°C 51.3°F10.7°C 72% 1.6 mph SW2.6 kmh SW 3.8 mph6.1 kmh 29.59 in1002.0 mb 0.00 in0.0 mm 0.00 in0.0 mm 0.00 in0.0 mm
02:17 PM 57.9°F14.4°C 51.1°F10.6°C 72% 1.6 mph S2.6 kmh S 3.1 mph5.0 kmh 29.59 in1002.0 mb 0.00 in0.0 mm 0.00 in0.0 mm 0.00 in0.0 mm
02:22 PM 58.5°F14.7°C 51.9°F11.1°C 73% 1.6 mph W2.6 kmh W 2.2 mph3.5 kmh 29.60 in1002.4 mb 0.00 in0.0 mm 0.00 in0.0 mm 0.00 in0.0 mm
02:27 PM 59.2°F15.1°C 52.0°F11.1°C 71% 3.1 mph W5.0 kmh W 4.5 mph7.2 kmh 29.59 in1002.0 mb 0.00 in0.0 mm 0.00 in0.0 mm 0.00 in0.0 mm
02:32 PM 61.5°F16.4°C 53.6°F12.0°C 69% 3.8 mph WSW6.1 kmh WSW 6.0 mph9.7 kmh 29.59 in1002.0 mb 0.00 in0.0 mm 0.00 in0.0 mm 0.00 in0.0 mm
02:37 PM 61.5°F16.4°C 51.4°F10.8°C 62% 3.8 mph SW6.1 kmh SW 7.6 mph12.2 kmh 29.58 in1001.7 mb 0.00 in0.0 mm 0.00 in0.0 mm 0.00 in0.0 mm
02:42 PM 60.1°F15.6°C 51.4°F10.8°C 66% 3.8 mph WSW6.1 kmh WSW 6.9 mph11.1 kmh 29.58 in1001.7 mb 0.00 in0.0 mm 0.00 in0.0 mm 0.00 in0.0 mm
02:47 PM 59.5°F15.3°C 51.5°F10.8°C 68% 2.2 mph W3.5 kmh W 4.5 mph7.2 kmh 29.59 in1002.0 mb 0.00 in0.0 mm 0.00 in0.0 mm 0.00 in0.0 mm
02:52 PM 59.0°F15.0°C 51.3°F10.7°C 69% 1.6 mph SW2.6 kmh SW 3.1 mph5.0 kmh 29.59 in1002.0 mb 0.00 in0.0 mm 0.00 in0.0 mm 0.00 in0.0 mm
02:57 PM 59.2°F15.1°C 51.7°F10.9°C 70% 3.1 mph SW5.0 kmh SW 5.4 mph8.7 kmh 29.58 in1001.7 mb 0.00 in0.0 mm 0.00 in0.0 mm 0.00 in0.0 mm
03:02 PM 59.2°F15.1°C 51.7°F10.9°C 70% 2.2 mph SW3.5 kmh SW 4.5 mph7.2 kmh 29.59 in1002.0 mb 0.00 in0.0 mm 0.00 in0.0 mm 0.00 in0.0 mm
03:07 PM 59.2°F15.1°C 51.7°F10.9°C 70% 1.6 mph S2.6 kmh S 3.8 mph6.1 kmh 29.59 in1002.0 mb 0.00 in0.0 mm 0.00 in0.0 mm 0.00 in0.0 mm
03:12 PM 59.2°F15.1°C 52.0°F11.1°C 71% 3.1 mph SW5.0 kmh SW 4.5 mph7.2 kmh 29.59 in1002.0 mb 0.00 in0.0 mm 0.00 in0.0 mm 0.00 in0.0 mm
03:17 PM 59.9°F15.5°C 52.7°F11.5°C 71% 5.4 mph S8.7 kmh S 8.3 mph13.4 kmh 29.59 in1002.0 mb 0.00 in0.0 mm 0.00 in0.0 mm 0.00 in0.0 mm
03:22 PM 59.5°F15.3°C 52.1°F11.2°C 70% 6.9 mph S11.1 kmh S 10.7 mph17.2 kmh 29.59 in1002.0 mb 0.00 in0.0 mm 0.00 in0.0 mm 0.00 in0.0 mm
03:27 PM 59.0°F15.0°C 51.8°F11.0°C 71% 5.4 mph SW8.7 kmh SW 6.9 mph11.1 kmh 29.59 in1002.0 mb 0.00 in0.0 mm 0.00 in0.0 mm 0.00 in0.0 mm
03:32 PM 58.5°F14.7°C 51.9°F11.1°C 73% 4.5 mph SW7.2 kmh SW 6.9 mph11.1 kmh 29.59 in1002.0 mb 0.00 in0.0 mm 0.00 in0.0 mm 0.00 in0.0 mm
03:37 PM 58.1°F14.5°C 51.8°F11.0°C 74% 3.8 mph S6.1 kmh S 6.9 mph11.1 kmh 29.60 in1002.4 mb 0.00 in0.0 mm 0.00 in0.0 mm 0.00 in0.0 mm
03:42 PM 57.9°F14.4°C 51.6°F10.9°C 74% 3.8 mph SW6.1 kmh SW 4.5 mph7.2 kmh 29.59 in1002.0 mb 0.00 in0.0 mm 0.00 in0.0 mm 0.00 in0.0 mm
03:47 PM 57.9°F14.4°C 51.9°F11.1°C 75% 1.6 mph SW2.6 kmh SW 3.8 mph6.1 kmh 29.59 in1002.0 mb 0.00 in0.0 mm 0.00 in0.0 mm 0.00 in0.0 mm
03:52 PM 58.5°F14.7°C 52.4°F11.3°C 75% 2.2 mph W3.5 kmh W 3.8 mph6.1 kmh 29.59 in1002.0 mb 0.00 in0.0 mm 0.00 in0.0 mm 0.00 in0.0 mm
03:57 PM 58.6°F14.8°C 52.6°F11.4°C 75% 3.1 mph SW5.0 kmh SW 4.5 mph7.2 kmh 29.58 in1001.7 mb 0.00 in0.0 mm 0.00 in0.0 mm 0.00 in0.0 mm
04:02 PM 58.8°F14.9°C 52.5°F11.4°C 74% 0.7 mph SW1.1 kmh SW 2.2 mph3.5 kmh 29.58 in1001.7 mb 0.00 in0.0 mm 0.00 in0.0 mm 0.00 in0.0 mm
04:07 PM 58.6°F14.8°C 52.3°F11.3°C 74% 3.1 mph S5.0 kmh S 5.4 mph8.7 kmh 29.58 in1001.7 mb 0.00 in0.0 mm 0.00 in0.0 mm 0.00 in0.0 mm
04:12 PM 58.1°F14.5°C 52.1°F11.2°C 75% 2.2 mph SW3.5 kmh SW 4.5 mph7.2 kmh 29.58 in1001.7 mb 0.00 in0.0 mm 0.00 in0.0 mm 0.00 in0.0 mm
04:17 PM 57.6°F14.2°C 51.8°F11.0°C 76% 2.2 mph SW3.5 kmh SW 3.8 mph6.1 kmh 29.59 in1002.0 mb 0.00 in0.0 mm 0.00 in0.0 mm 0.00 in0.0 mm
04:22 PM 57.4°F14.1°C 52.2°F11.2°C 78% 2.2 mph S3.5 kmh S 3.8 mph6.1 kmh 29.58 in1001.7 mb 0.00 in0.0 mm 0.00 in0.0 mm 0.00 in0.0 mm
04:27 PM 57.9°F14.4°C 53.2°F11.8°C 80% 1.6 mph S2.6 kmh S 3.1 mph5.0 kmh 29.58 in1001.7 mb 0.00 in0.0 mm 0.00 in0.0 mm 0.00 in0.0 mm
04:32 PM 59.0°F15.0°C 53.8°F12.1°C 78% 0.7 mph SW1.1 kmh SW 1.6 mph2.6 kmh 29.58 in1001.7 mb 0.00 in0.0 mm 0.00 in0.0 mm 0.00 in0.0 mm
04:37 PM 59.2°F15.1°C 53.4°F11.9°C 76% 1.6 mph SW2.6 kmh SW 3.1 mph5.0 kmh 29.58 in1001.7 mb 0.00 in0.0 mm 0.00 in0.0 mm 0.00 in0.0 mm
04:42 PM 59.0°F15.0°C 53.2°F11.8°C 76% 3.8 mph NW6.1 kmh NW 6.0 mph9.7 kmh 29.58 in1001.7 mb 0.00 in0.0 mm 0.00 in0.0 mm 0.00 in0.0 mm
04:47 PM 58.1°F14.5°C 52.9°F11.6°C 78% 2.2 mph SW3.5 kmh SW 3.8 mph6.1 kmh 29.59 in1002.0 mb 0.00 in0.0 mm 0.00 in0.0 mm 0.00 in0.0 mm
04:52 PM 57.6°F14.2°C 52.9°F11.6°C 80% 0.7 mph SW1.1 kmh SW 1.6 mph2.6 kmh 29.58 in1001.7 mb 0.00 in0.0 mm 0.00 in0.0 mm 0.00 in0.0 mm
04:57 PM 57.4°F14.1°C 53.0°F11.7°C 81% 2.2 mph SW3.5 kmh SW 5.4 mph8.7 kmh 29.58 in1001.7 mb 0.00 in0.0 mm 0.00 in0.0 mm 0.00 in0.0 mm
05:02 PM 57.0°F13.9°C 52.9°F11.6°C 82% 3.1 mph S5.0 kmh S 6.0 mph9.7 kmh 29.59 in1002.0 mb 0.00 in0.0 mm 0.00 in0.0 mm 0.00 in0.0 mm
05:07 PM 56.7°F13.7°C 52.8°F11.6°C 83% 3.8 mph S6.1 kmh S 7.6 mph12.2 kmh 29.59 in1002.0 mb 0.00 in0.0 mm 0.00 in0.0 mm 0.00 in0.0 mm
05:12 PM 55.9°F13.3°C 52.3°F11.3°C 84% 0.7 mph SW1.1 kmh SW 2.2 mph3.5 kmh 29.59 in1002.0 mb 0.00 in0.0 mm 0.00 in0.0 mm 0.00 in0.0 mm
05:17 PM 55.6°F13.1°C 52.2°F11.2°C 85% 3.1 mph SW5.0 kmh SW 5.4 mph8.7 kmh 29.59 in1002.0 mb 0.00 in0.0 mm 0.00 in0.0 mm 0.00 in0.0 mm
05:22 PM 55.4°F13.0°C 52.5°F11.4°C 87% 0.7 mph NW1.1 kmh NW 3.1 mph5.0 kmh 29.59 in1002.0 mb 0.00 in0.0 mm 0.00 in0.0 mm 0.00 in0.0 mm
05:27 PM 55.0°F12.8°C 52.4°F11.3°C 88% 2.2 mph SW3.5 kmh SW 3.8 mph6.1 kmh 29.59 in1002.0 mb 0.00 in0.0 mm 0.00 in0.0 mm 0.00 in0.0 mm
05:32 PM 54.9°F12.7°C 52.2°F11.2°C 88% 1.6 mph SW2.6 kmh SW 3.1 mph5.0 kmh 29.59 in1002.0 mb 0.00 in0.0 mm 0.00 in0.0 mm 0.00 in0.0 mm
05:37 PM 54.9°F12.7°C 52.5°F11.4°C 89% Calm Calm 1.6 mph2.6 kmh 29.59 in1002.0 mb 0.00 in0.0 mm 0.00 in0.0 mm 0.00 in0.0 mm
05:42 PM 54.9°F12.7°C 52.5°F11.4°C 89% 1.6 mph SW2.6 kmh SW 3.1 mph5.0 kmh 29.58 in1001.7 mb 0.00 in0.0 mm 0.00 in0.0 mm 0.00 in0.0 mm
05:47 PM 54.9°F12.7°C 52.5°F11.4°C 89% 0.7 mph SW1.1 kmh SW 1.6 mph2.6 kmh 29.59 in1002.0 mb 0.00 in0.0 mm 0.00 in0.0 mm 0.00 in0.0 mm
05:52 PM 55.0°F12.8°C 52.6°F11.4°C 89% 0.7 mph SW1.1 kmh SW 2.2 mph3.5 kmh 29.59 in1002.0 mb 0.00 in0.0 mm 0.00 in0.0 mm 0.00 in0.0 mm
05:57 PM 55.2°F12.9°C 52.8°F11.6°C 89% 1.6 mph SW2.6 kmh SW 3.1 mph5.0 kmh 29.59 in1002.0 mb 0.00 in0.0 mm 0.00 in0.0 mm 0.00 in0.0 mm
06:02 PM 55.4°F13.0°C 52.7°F11.5°C 88% 0.7 mph SW1.1 kmh SW 1.6 mph2.6 kmh 29.59 in1002.0 mb 0.00 in0.0 mm 0.00 in0.0 mm 0.00 in0.0 mm
06:07 PM 55.4°F13.0°C 52.7°F11.5°C 88% 2.2 mph SW3.5 kmh SW 3.8 mph6.1 kmh 29.59 in1002.0 mb 0.00 in0.0 mm 0.00 in0.0 mm 0.00 in0.0 mm
06:12 PM 55.6°F13.1°C 52.9°F11.6°C 88% 2.2 mph SW3.5 kmh SW 4.5 mph7.2 kmh 29.59 in1002.0 mb 0.00 in0.0 mm 0.00 in0.0 mm 0.00 in0.0 mm
06:17 PM 55.6°F13.1°C 52.7°F11.5°C 87% 0.7 mph SW1.1 kmh SW 2.2 mph3.5 kmh 29.59 in1002.0 mb 0.00 in0.0 mm 0.00 in0.0 mm 0.00 in0.0 mm
06:22 PM 55.8°F13.2°C 52.9°F11.6°C 87% 0.7 mph SW1.1 kmh SW 2.2 mph3.5 kmh 29.58 in1001.7 mb 0.00 in0.0 mm 0.00 in0.0 mm 0.00 in0.0 mm
06:27 PM 55.9°F13.3°C 53.0°F11.7°C 87% 3.1 mph SW5.0 kmh SW 4.5 mph7.2 kmh 29.58 in1001.7 mb 0.00 in0.0 mm 0.00 in0.0 mm 0.00 in0.0 mm
06:32 PM 55.9°F13.3°C 53.0°F11.7°C 87% 0.7 mph SW1.1 kmh SW 2.2 mph3.5 kmh 29.59 in1002.0 mb 0.00 in0.0 mm 0.00 in0.0 mm 0.00 in0.0 mm
06:37 PM 55.8°F13.2°C 52.6°F11.4°C 86% Calm Calm 1.6 mph2.6 kmh 29.58 in1001.7 mb 0.00 in0.0 mm 0.00 in0.0 mm 0.00 in0.0 mm
06:42 PM 55.6°F13.1°C 52.5°F11.4°C 86% 3.1 mph SW5.0 kmh SW 5.4 mph8.7 kmh 29.59 in1002.0 mb 0.00 in0.0 mm 0.00 in0.0 mm 0.00 in0.0 mm
06:47 PM 55.4°F13.0°C 52.3°F11.3°C 86% 2.2 mph S3.5 kmh S 3.8 mph6.1 kmh 29.58 in1001.7 mb 0.00 in0.0 mm 0.00 in0.0 mm 0.00 in0.0 mm
06:52 PM 55.2°F12.9°C 52.3°F11.3°C 87% 3.8 mph S6.1 kmh S 6.9 mph11.1 kmh 29.59 in1002.0 mb 0.00 in0.0 mm 0.00 in0.0 mm 0.00 in0.0 mm
06:57 PM 54.9°F12.7°C 51.7°F10.9°C 86% 3.1 mph W5.0 kmh W 4.5 mph7.2 kmh 29.59 in1002.0 mb 0.00 in0.0 mm 0.00 in0.0 mm 0.00 in0.0 mm
07:02 PM 54.7°F12.6°C 51.6°F10.9°C 86% 0.7 mph SW1.1 kmh SW 1.6 mph2.6 kmh 29.59 in1002.0 mb 0.00 in0.0 mm 0.00 in0.0 mm 0.00 in0.0 mm
07:07 PM 54.5°F12.5°C 51.6°F10.9°C 87% 1.6 mph SW2.6 kmh SW 3.1 mph5.0 kmh 29.59 in1002.0 mb 0.00 in0.0 mm 0.00 in0.0 mm 0.00 in0.0 mm
07:12 PM 54.5°F12.5°C 51.6°F10.9°C 87% 3.1 mph WSW5.0 kmh WSW 5.4 mph8.7 kmh 29.59 in1002.0 mb 0.00 in0.0 mm 0.00 in0.0 mm 0.00 in0.0 mm
07:17 PM 54.1°F12.3°C 51.3°F10.7°C 87% 1.6 mph SW2.6 kmh SW 3.1 mph5.0 kmh 29.59 in1002.0 mb 0.00 in0.0 mm 0.00 in0.0 mm 0.00 in0.0 mm
07:22 PM 54.1°F12.3°C 51.5°F10.8°C 88% 0.7 mph S1.1 kmh S 2.2 mph3.5 kmh 29.59 in1002.0 mb 0.00 in0.0 mm 0.00 in0.0 mm 0.00 in0.0 mm
07:27 PM 54.1°F12.3°C 51.5°F10.8°C 88% 1.6 mph S2.6 kmh S 3.1 mph5.0 kmh 29.59 in1002.0 mb 0.00 in0.0 mm 0.00 in0.0 mm 0.00 in0.0 mm
07:32 PM 54.1°F12.3°C 51.5°F10.8°C 88% 0.7 mph SW1.1 kmh SW 1.6 mph2.6 kmh 29.59 in1002.0 mb 0.00 in0.0 mm 0.00 in0.0 mm 0.00 in0.0 mm
07:37 PM 54.1°F12.3°C 51.7°F10.9°C 89% 0.7 mph SW1.1 kmh SW 3.1 mph5.0 kmh 29.59 in1002.0 mb 0.00 in0.0 mm 0.00 in0.0 mm 0.00 in0.0 mm
07:42 PM 54.0°F12.2°C 51.6°F10.9°C 89% 0.7 mph SW1.1 kmh SW 2.2 mph3.5 kmh 29.59 in1002.0 mb 0.00 in0.0 mm 0.00 in0.0 mm 0.00 in0.0 mm
07:47 PM 54.0°F12.2°C 51.6°F10.9°C 89% 0.7 mph S1.1 kmh S 2.2 mph3.5 kmh 29.59 in1002.0 mb 0.00 in0.0 mm 0.00 in0.0 mm 0.00 in0.0 mm
07:52 PM 54.0°F12.2°C 51.6°F10.9°C 89% 1.6 mph SW2.6 kmh SW 2.2 mph3.5 kmh 29.58 in1001.7 mb 0.00 in0.0 mm 0.00 in0.0 mm 0.00 in0.0 mm
07:57 PM 54.0°F12.2°C 51.6°F10.9°C 89% 1.6 mph S2.6 kmh S 3.8 mph6.1 kmh 29.59 in1002.0 mb 0.00 in0.0 mm 0.00 in0.0 mm 0.00 in0.0 mm
08:02 PM 53.8°F12.1°C 51.4°F10.8°C 89% 2.2 mph S3.5 kmh S 4.5 mph7.2 kmh 29.58 in1001.7 mb 0.00 in0.0 mm 0.00 in0.0 mm 0.00 in0.0 mm
08:07 PM 53.8°F12.1°C 51.6°F10.9°C 90% 0.7 mph W1.1 kmh W 2.2 mph3.5 kmh 29.58 in1001.7 mb 0.00 in0.0 mm 0.00 in0.0 mm 0.00 in0.0 mm
08:12 PM 53.6°F12.0°C 51.4°F10.8°C 90% 1.6 mph SW2.6 kmh SW 3.1 mph5.0 kmh 29.59 in1002.0 mb 0.00 in0.0 mm 0.00 in0.0 mm 0.00 in0.0 mm
08:17 PM 53.4°F11.9°C 51.5°F10.8°C 91% 1.6 mph SW2.6 kmh SW 3.1 mph5.0 kmh 29.59 in1002.0 mb 0.00 in0.0 mm 0.00 in0.0 mm 0.00 in0.0 mm
08:22 PM 53.2°F11.8°C 51.5°F10.8°C 92% 2.2 mph NW3.5 kmh NW 5.4 mph8.7 kmh 29.58 in1001.7 mb 0.00 in0.0 mm 0.00 in0.0 mm 0.00 in0.0 mm
08:27 PM 53.1°F11.7°C 51.4°F10.8°C 92% 1.6 mph NW2.6 kmh NW 3.1 mph5.0 kmh 29.58 in1001.7 mb 0.00 in0.0 mm 0.00 in0.0 mm 0.00 in0.0 mm
08:32 PM 53.1°F11.7°C 51.6°F10.9°C 93% Calm Calm 1.6 mph2.6 kmh 29.58 in1001.7 mb 0.00 in0.0 mm 0.00 in0.0 mm 0.00 in0.0 mm
08:37 PM 53.1°F11.7°C 51.6°F10.9°C 93% 0.7 mph SW1.1 kmh SW 2.2 mph3.5 kmh 29.58 in1001.7 mb 0.00 in0.0 mm 0.00 in0.0 mm 0.00 in0.0 mm
08:42 PM 52.9°F11.6°C 51.6°F10.9°C 94% 0.7 mph SW1.1 kmh SW 2.2 mph3.5 kmh 29.58 in1001.7 mb 0.00 in0.0 mm 0.00 in0.0 mm 0.00 in0.0 mm
08:47 PM 52.9°F11.6°C 51.6°F10.9°C 94% Calm Calm 1.6 mph2.6 kmh 29.58 in1001.7 mb 0.00 in0.0 mm 0.00 in0.0 mm 0.00 in0.0 mm
08:52 PM 52.9°F11.6°C 51.8°F11.0°C 95% 1.6 mph S2.6 kmh S 3.1 mph5.0 kmh 29.58 in1001.7 mb 0.00 in0.0 mm 0.00 in0.0 mm 0.00 in0.0 mm
08:57 PM 52.9°F11.6°C 51.8°F11.0°C 95% Calm Calm 1.6 mph2.6 kmh 29.58 in1001.7 mb 0.00 in0.0 mm 0.00 in0.0 mm 0.00 in0.0 mm
09:02 PM 52.9°F11.6°C 51.8°F11.0°C 95% 2.2 mph SW3.5 kmh SW 5.4 mph8.7 kmh 29.58 in1001.7 mb 0.00 in0.0 mm 0.00 in0.0 mm 0.00 in0.0 mm
09:07 PM 52.9°F11.6°C 52.0°F11.1°C 96% 0.7 mph SW1.1 kmh SW 1.6 mph2.6 kmh 29.58 in1001.7 mb 0.00 in0.0 mm 0.00 in0.0 mm 0.00 in0.0 mm
09:12 PM 52.9°F11.6°C 52.0°F11.1°C 96% 1.6 mph SW2.6 kmh SW 4.5 mph7.2 kmh 29.58 in1001.7 mb 0.00 in0.0 mm 0.00 in0.0 mm 0.00 in0.0 mm
09:17 PM 52.9°F11.6°C 52.0°F11.1°C 96% 0.7 mph SE1.1 kmh SE 1.6 mph2.6 kmh 29.57 in1001.4 mb 0.00 in0.0 mm 0.00 in0.0 mm 0.00 in0.0 mm
09:22 PM 52.7°F11.5°C 51.9°F11.1°C 96% Calm Calm 1.6 mph2.6 kmh 29.58 in1001.7 mb 0.00 in0.0 mm 0.00 in0.0 mm 0.00 in0.0 mm
09:27 PM 52.9°F11.6°C 52.0°F11.1°C 96% 2.2 mph S3.5 kmh S 3.1 mph5.0 kmh 29.58 in1001.7 mb 0.00 in0.0 mm 0.00 in0.0 mm 0.00 in0.0 mm
09:32 PM 52.7°F11.5°C 52.1°F11.2°C 97% 3.1 mph SW5.0 kmh SW 4.5 mph7.2 kmh 29.58 in1001.7 mb 0.00 in0.0 mm 0.00 in0.0 mm 0.00 in0.0 mm
09:37 PM 52.7°F11.5°C 52.1°F11.2°C 97% 2.2 mph SW3.5 kmh SW 4.5 mph7.2 kmh 29.58 in1001.7 mb 0.00 in0.0 mm 0.00 in0.0 mm 0.00 in0.0 mm
09:42 PM 52.7°F11.5°C 52.1°F11.2°C 97% Calm Calm 1.6 mph2.6 kmh 29.58 in1001.7 mb 0.00 in0.0 mm 0.00 in0.0 mm 0.00 in0.0 mm
09:47 PM 52.7°F11.5°C 52.1°F11.2°C 97% 0.7 mph SW1.1 kmh SW 2.2 mph3.5 kmh 29.58 in1001.7 mb 0.00 in0.0 mm 0.00 in0.0 mm 0.00 in0.0 mm
09:52 PM 52.7°F11.5°C 52.1°F11.2°C 97% Calm Calm 1.6 mph2.6 kmh 29.58 in1001.7 mb 0.00 in0.0 mm 0.00 in0.0 mm 0.00 in0.0 mm
09:57 PM 52.5°F11.4°C 51.9°F11.1°C 97% 1.6 mph SW2.6 kmh SW 3.1 mph5.0 kmh 29.58 in1001.7 mb 0.00 in0.0 mm 0.00 in0.0 mm 0.00 in0.0 mm
10:02 PM 52.5°F11.4°C 51.9°F11.1°C 97% Calm Calm 1.6 mph2.6 kmh 29.58 in1001.7 mb 0.00 in0.0 mm 0.00 in0.0 mm 0.00 in0.0 mm
10:07 PM 52.5°F11.4°C 52.1°F11.2°C 98% 1.6 mph SW2.6 kmh SW 3.8 mph6.1 kmh 29.57 in1001.4 mb 0.00 in0.0 mm 0.00 in0.0 mm 0.00 in0.0 mm
10:12 PM 52.5°F11.4°C 52.1°F11.2°C 98% 1.6 mph SW2.6 kmh SW 3.1 mph5.0 kmh 29.57 in1001.4 mb 0.00 in0.0 mm 0.00 in0.0 mm 0.00 in0.0 mm
10:17 PM 52.5°F11.4°C 52.1°F11.2°C 98% 1.6 mph SW2.6 kmh SW 3.8 mph6.1 kmh 29.58 in1001.7 mb 0.00 in0.0 mm 0.00 in0.0 mm 0.00 in0.0 mm
10:22 PM 52.5°F11.4°C 52.1°F11.2°C 98% 0.7 mph SW1.1 kmh SW 1.6 mph2.6 kmh 29.58 in1001.7 mb 0.00 in0.0 mm 0.00 in0.0 mm 0.00 in0.0 mm
10:27 PM 52.5°F11.4°C 52.1°F11.2°C 98% 0.7 mph SW1.1 kmh SW 1.6 mph2.6 kmh 29.57 in1001.4 mb 0.00 in0.0 mm 0.00 in0.0 mm 0.00 in0.0 mm
10:32 PM 52.5°F11.4°C 52.1°F11.2°C 98% 0.7 mph SW1.1 kmh SW 0.7 mph1.1 kmh 29.57 in1001.4 mb 0.00 in0.0 mm 0.00 in0.0 mm 0.00 in0.0 mm
10:37 PM 52.5°F11.4°C 52.1°F11.2°C 98% 1.6 mph SW2.6 kmh SW 3.1 mph5.0 kmh 29.57 in1001.4 mb 0.00 in0.0 mm 0.00 in0.0 mm 0.00 in0.0 mm
10:42 PM 52.5°F11.4°C 52.1°F11.2°C 98% 0.7 mph S1.1 kmh S 2.2 mph3.5 kmh 29.58 in1001.7 mb 0.00 in0.0 mm 0.00 in0.0 mm 0.00 in0.0 mm
10:47 PM 52.5°F11.4°C 52.1°F11.2°C 98% 1.6 mph NW2.6 kmh NW 3.1 mph5.0 kmh 29.57 in1001.4 mb 0.00 in0.0 mm 0.00 in0.0 mm 0.00 in0.0 mm
10:52 PM 52.5°F11.4°C 52.1°F11.2°C 98% 2.2 mph SW3.5 kmh SW 3.8 mph6.1 kmh 29.57 in1001.4 mb 0.00 in0.0 mm 0.00 in0.0 mm 0.00 in0.0 mm
10:57 PM 52.5°F11.4°C 52.1°F11.2°C 98% 1.6 mph SW2.6 kmh SW 3.8 mph6.1 kmh 29.57 in1001.4 mb 0.00 in0.0 mm 0.00 in0.0 mm 0.00 in0.0 mm
11:02 PM 52.5°F11.4°C 52.1°F11.2°C 98% 1.6 mph SW2.6 kmh SW 2.2 mph3.5 kmh 29.57 in1001.4 mb 0.00 in0.0 mm 0.00 in0.0 mm 0.00 in0.0 mm
11:07 PM 52.5°F11.4°C 52.1°F11.2°C 98% 1.6 mph SW2.6 kmh SW 3.8 mph6.1 kmh 29.57 in1001.4 mb 0.00 in0.0 mm 0.00 in0.0 mm 0.00 in0.0 mm
11:12 PM 52.5°F11.4°C 52.1°F11.2°C 98% 2.2 mph W3.5 kmh W 4.5 mph7.2 kmh 29.57 in1001.4 mb 0.00 in0.0 mm 0.00 in0.0 mm 0.00 in0.0 mm
11:17 PM 52.3°F11.3°C 51.9°F11.1°C 98% 0.7 mph SW1.1 kmh SW 2.2 mph3.5 kmh 29.58 in1001.7 mb 0.00 in0.0 mm 0.00 in0.0 mm 0.00 in0.0 mm
11:22 PM 52.3°F11.3°C 51.9°F11.1°C 98% Calm Calm 0.7 mph1.1 kmh 29.57 in1001.4 mb 0.00 in0.0 mm 0.00 in0.0 mm 0.00 in0.0 mm
11:27 PM 52.3°F11.3°C 51.9°F11.1°C 98% 1.6 mph 2.6 kmh 3.1 mph5.0 kmh 29.57 in1001.4 mb 0.00 in0.0 mm 0.00 in0.0 mm 0.00 in0.0 mm
11:32 PM 52.3°F11.3°C 51.9°F11.1°C 98% 0.7 mph SW1.1 kmh SW 3.8 mph6.1 kmh 29.58 in1001.7 mb 0.00 in0.0 mm 0.00 in0.0 mm 0.00 in0.0 mm
11:37 PM 52.3°F11.3°C 51.9°F11.1°C 98% 1.6 mph SW2.6 kmh SW 3.1 mph5.0 kmh 29.57 in1001.4 mb 0.00 in0.0 mm 0.00 in0.0 mm 0.00 in0.0 mm
11:42 PM 52.3°F11.3°C 51.9°F11.1°C 98% Calm Calm 1.6 mph2.6 kmh 29.57 in1001.4 mb 0.00 in0.0 mm 0.00 in0.0 mm 0.00 in0.0 mm
11:47 PM 52.3°F11.3°C 51.9°F11.1°C 98% 1.6 mph E2.6 kmh E 2.2 mph3.5 kmh 29.56 in1001.0 mb 0.00 in0.0 mm 0.00 in0.0 mm 0.00 in0.0 mm
11:52 PM 52.3°F11.3°C 51.9°F11.1°C 98% 0.7 mph S1.1 kmh S 3.1 mph5.0 kmh 29.57 in1001.4 mb 0.00 in0.0 mm 0.00 in0.0 mm 0.00 in0.0 mm
11:57 PM 52.3°F11.3°C 51.9°F11.1°C 98% 2.2 mph S3.5 kmh S 3.1 mph5.0 kmh 29.57 in1001.4 mb 0.00 in0.0 mm 0.00 in0.0 mm 0.00 in0.0 mm